METAR

METAR LDZA 231000Z 25009KT 200V320 CAVOK 31/17 Q1014 NOSIG =
METAR LDSP 231000Z 09006KT 060V120 CAVOK 30/14 Q1018 BECMG 23008KT=
METAR LDDU 231000Z 19007KT 140V230 CAVOK 25/20 Q1019 NOSIG =
METAR LDZD 231000Z 20007KT 120V280 CAVOK 30/16 Q1017 NOSIG =
METAR LDPL 231000Z 11007KT 060V150 CAVOK 28/21 Q1016 BECMG 27008KT=
METAR LDOS 231000Z 26010KT 230V290 CAVOK 32/16 Q1014=
METAR LDSB 231000Z 22007KT 190V260 CAVOK 28/15 Q1020=
METAR LDRI 231000Z 27006KT 230V300 CAVOK 27/18 Q1017=
METAR LDLO 231000Z 16009KT CAVOK 28/23 Q1017=

TAF

TAF LDZA 230525Z 2306/2406 23008KT CAVOK
                 TX35/2314Z TN19/2402Z
    PROB30 TEMPO 2306/2309 TSRA FEW035CB SCT040
    PROB40 TEMPO 2313/2317 VRB15G30KT 3000 TSRA SCT035CB BKN040
    PROB30 TEMPO 2314/2316 1000 TSGR SCT030CB BKN035
    PROB30 TEMPO 2317/2322 TSRA FEW035CB SCT040
           BECMG 2317/2319 VRB02KT=
TAF LDSP 230525Z 2306/2406 VRB02KT 9999 FEW060
                 TX31/2312Z TN21/2403Z
           BECMG 2309/2311 23008KT
           TEMPO 2311/2314 23010KT
           BECMG 2318/2320 VRB02KT=
TAF LDDU 230525Z 2306/2406 17007KT 9999 FEW040
                 TX28/2312Z TN19/2403Z
           TEMPO 2307/2310 16009KT
    PROB30 TEMPO 2314/2318 29008KT=
TAF LDZD 230525Z 2306/2406 15006KT 9999 FEW060
                 TX32/2312Z TN19/2403Z
           BECMG 2309/2311 25008KT
           TEMPO 2312/2315 28008KT
           BECMG 2316/2318 VRB02KT=
TAF LDPL 230525Z 2306/2406 08007KT CAVOK
                 TX32/2313Z TN20/2403Z
           BECMG 2309/2311 27008KT
           BECMG 2316/2318 VRB02KT
           BECMG 2322/2324 09007KT=
TAF LDOS 230525Z 2306/2406 24010KT CAVOK
                 TX32/2313Z TN18/2402Z
           BECMG 2314/2316 32010KT
    PROB30 TEMPO 2315/2319 TSRA FEW030CB BKN035=
TAF LDSB 230607Z 2307/2406 20005KT CAVOK
                 TX28/2312Z TN24/2403Z
           TEMPO 2308/2312 20008KT=
TAF LDRI 230525Z 2306/2406 VRB02KT CAVOK
                 TX31/2313Z TN22/2402Z=
TAF LDLO 230609Z 2306/2406 15008KT CAVOK
                 TX29/2312Z TN24/2404Z
           BECMG 2309/2311 29010KT
           BECMG 2316/2318 16007KT=

SIGMET

AIRMET

LDZO AIRMET 4 VALID 230716/231100 LDZA-
LDZO ZAGREB FIR ISOL TCU OBS WI N4630 E01624 - N4554 E01849 - N4513
E01924 - N4326 E01717 - N4528 E01402 - N4630 E01624 TOP ABV FL100
MOV ESE 20KT NC=

Ukoliko se brzina i smjer vjetra ne mogu odrediti zbog privremenog kvara sustava/indikatora,
informacija o vjetru u METAR izvješću bit će prikazana kao "/////KT".

 

         

      Politika MET podataka      

 

Disclaimer

 

In case of temporary system/sensor failure, wind speed and direction data will be represented as "/////KT" in METAR report.